sensor_id;sensor_type;location;lat;lon;timestamp;pressure;altitude;pressure_sealevel;temperature;humidity
54808;BME280;40708;50.364;7.550;2022-10-31T00:01:15;101098.53;;;11.25;100.00
54808;BME280;40708;50.364;7.550;2022-10-31T00:03:41;101103.91;;;11.34;100.00
54808;BME280;40708;50.364;7.550;2022-10-31T00:06:06;101095.03;;;11.29;100.00
54808;BME280;40708;50.364;7.550;2022-10-31T00:08:32;101084.34;;;11.23;100.00
54808;BME280;40708;50.364;7.550;2022-10-31T00:10:57;101079.03;;;11.22;100.00
54808;BME280;40708;50.364;7.550;2022-10-31T00:13:22;101089.69;;;11.25;100.00
54808;BME280;40708;50.364;7.550;2022-10-31T00:15:48;101094.00;;;11.12;100.00
54808;BME280;40708;50.364;7.550;2022-10-31T00:18:13;101092.19;;;11.05;100.00
54808;BME280;40708;50.364;7.550;2022-10-31T00:20:39;101090.44;;;11.10;100.00
54808;BME280;40708;50.364;7.550;2022-10-31T00:23:05;101092.25;;;11.16;100.00
54808;BME280;40708;50.364;7.550;2022-10-31T00:25:34;101085.16;;;11.15;100.00
54808;BME280;40708;50.364;7.550;2022-10-31T00:28:01;101095.84;;;11.22;100.00
54808;BME280;40708;50.364;7.550;2022-10-31T00:30:26;101095.78;;;11.15;100.00
54808;BME280;40708;50.364;7.550;2022-10-31T00:32:51;101099.34;;;11.15;100.00
54808;BME280;40708;50.364;7.550;2022-10-31T00:35:17;101101.13;;;11.18;100.00
54808;BME280;40708;50.364;7.550;2022-10-31T00:37:42;101106.47;;;11.19;100.00
54808;BME280;40708;50.364;7.550;2022-10-31T00:40:08;101100.31;;;11.26;100.00
54808;BME280;40708;50.364;7.550;2022-10-31T00:42:33;101098.50;;;11.22;100.00
54808;BME280;40708;50.364;7.550;2022-10-31T00:44:59;101103.81;;;11.22;100.00
54808;BME280;40708;50.364;7.550;2022-10-31T00:47:24;101101.16;;;11.19;100.00
54808;BME280;40708;50.364;7.550;2022-10-31T00:49:49;101109.13;;;11.21;100.00
54808;BME280;40708;50.364;7.550;2022-10-31T00:52:14;101110.03;;;11.21;100.00
54808;BME280;40708;50.364;7.550;2022-10-31T00:54:40;101117.09;;;11.21;100.00
54808;BME280;40708;50.364;7.550;2022-10-31T00:57:05;101112.69;;;11.26;100.00
54808;BME280;40708;50.364;7.550;2022-10-31T00:59:30;101107.44;;;11.30;100.00
54808;BME280;40708;50.364;7.550;2022-10-31T01:01:56;101106.56;;;11.31;100.00
54808;BME280;40708;50.364;7.550;2022-10-31T01:04:21;101101.22;;;11.27;100.00
54808;BME280;40708;50.364;7.550;2022-10-31T01:06:47;101098.59;;;11.33;100.00
54808;BME280;40708;50.364;7.550;2022-10-31T01:09:12;101107.41;;;11.27;100.00
54808;BME280;40708;50.364;7.550;2022-10-31T01:11:37;101109.16;;;11.24;100.00
54808;BME280;40708;50.364;7.550;2022-10-31T01:14:02;101107.38;;;11.21;100.00
54808;BME280;40708;50.364;7.550;2022-10-31T01:16:28;101107.34;;;11.20;100.00
54808;BME280;40708;50.364;7.550;2022-10-31T01:18:54;101105.50;;;11.11;100.00
54808;BME280;40708;50.364;7.550;2022-10-31T01:21:24;101109.91;;;11.08;100.00
54808;BME280;40708;50.364;7.550;2022-10-31T01:23:52;101100.97;;;11.01;100.00
54808;BME280;40708;50.364;7.550;2022-10-31T01:26:20;101105.34;;;10.96;100.00
54808;BME280;40708;50.364;7.550;2022-10-31T01:28:51;101107.16;;;10.99;100.00
54808;BME280;40708;50.364;7.550;2022-10-31T01:31:18;101107.13;;;10.94;100.00
54808;BME280;40708;50.364;7.550;2022-10-31T01:33:44;101108.00;;;10.96;100.00
54808;BME280;40708;50.364;7.550;2022-10-31T01:36:13;101100.03;;;10.93;100.00
54808;BME280;40708;50.364;7.550;2022-10-31T01:38:39;101095.59;;;10.94;100.00
54808;BME280;40708;50.364;7.550;2022-10-31T01:41:05;101100.94;;;10.97;100.00
54808;BME280;40708;50.364;7.550;2022-10-31T01:43:51;101100.06;;;11.01;100.00
54808;BME280;40708;50.364;7.550;2022-10-31T01:46:38;101099.22;;;11.02;100.00
54808;BME280;40708;50.364;7.550;2022-10-31T01:49:18;101090.41;;;11.06;100.00
54808;BME280;40708;50.364;7.550;2022-10-31T01:52:09;101085.97;;;11.03;100.00
54808;BME280;40708;50.364;7.550;2022-10-31T01:54:41;101084.16;;;10.99;100.00
54808;BME280;40708;50.364;7.550;2022-10-31T01:57:10;101083.28;;;11.02;100.00
54808;BME280;40708;50.364;7.550;2022-10-31T01:59:42;101078.88;;;11.02;100.00
54808;BME280;40708;50.364;7.550;2022-10-31T02:02:10;101080.63;;;11.02;100.00
54808;BME280;40708;50.364;7.550;2022-10-31T02:04:36;101076.19;;;11.01;100.00
54808;BME280;40708;50.364;7.550;2022-10-31T02:07:13;101068.22;;;11.01;100.00
54808;BME280;40708;50.364;7.550;2022-10-31T02:09:40;101068.28;;;11.07;100.00
54808;BME280;40708;50.364;7.550;2022-10-31T02:12:06;101072.72;;;11.09;100.00
54808;BME280;40708;50.364;7.550;2022-10-31T02:14:35;101071.03;;;11.16;100.00
54808;BME280;40708;50.364;7.550;2022-10-31T02:17:00;101079.84;;;11.13;100.00
54808;BME280;40708;50.364;7.550;2022-10-31T02:19:48;101074.50;;;11.10;100.00
54808;BME280;40708;50.364;7.550;2022-10-31T02:22:25;101070.06;;;11.09;100.00
54808;BME280;40708;50.364;7.550;2022-10-31T02:24:58;101067.34;;;11.02;100.00
54808;BME280;40708;50.364;7.550;2022-10-31T02:30:24;101064.56;;;10.85;100.00
54808;BME280;40708;50.364;7.550;2022-10-31T02:33:11;101062.78;;;10.86;100.00
54808;BME280;40708;50.364;7.550;2022-10-31T02:35:53;101068.97;;;10.82;100.00
54808;BME280;40708;50.364;7.550;2022-10-31T02:38:53;101067.09;;;10.74;100.00
54808;BME280;40708;50.364;7.550;2022-10-31T02:47:08;101065.28;;;10.69;100.00
54808;BME280;40708;50.364;7.550;2022-10-31T02:49:53;101070.53;;;10.61;100.00
54808;BME280;40708;50.364;7.550;2022-10-31T02:52:28;101066.97;;;10.61;100.00
54808;BME280;40708;50.364;7.550;2022-10-31T02:54:54;101068.72;;;10.60;100.00
54808;BME280;40708;50.364;7.550;2022-10-31T02:57:33;101068.72;;;10.60;100.00
54808;BME280;40708;50.364;7.550;2022-10-31T03:00:09;101068.69;;;10.56;100.00
54808;BME280;40708;50.364;7.550;2022-10-31T03:02:55;101064.09;;;10.41;100.00
54808;BME280;40708;50.364;7.550;2022-10-31T03:05:51;101072.06;;;10.40;100.00
54808;BME280;40708;50.364;7.550;2022-10-31T03:08:36;101074.75;;;10.44;100.00
54808;BME280;40708;50.364;7.550;2022-10-31T03:11:07;101069.47;;;10.47;100.00
54808;BME280;40708;50.364;7.550;2022-10-31T03:13:42;101065.09;;;10.52;100.00
54808;BME280;40708;50.364;7.550;2022-10-31T03:16:14;101068.66;;;10.51;100.00
54808;BME280;40708;50.364;7.550;2022-10-31T03:18:43;101074.78;;;10.46;100.00
54808;BME280;40708;50.364;7.550;2022-10-31T03:21:20;101074.78;;;10.47;100.00
54808;BME280;40708;50.364;7.550;2022-10-31T03:23:49;101085.44;;;10.52;100.00
54808;BME280;40708;50.364;7.550;2022-10-31T03:26:15;101076.66;;;10.54;100.00
54808;BME280;40708;50.364;7.550;2022-10-31T03:28:46;101074.00;;;10.54;100.00
54808;BME280;40708;50.364;7.550;2022-10-31T03:31:17;101074.00;;;10.54;100.00
54808;BME280;40708;50.364;7.550;2022-10-31T03:33:44;101074.00;;;10.54;100.00
54808;BME280;40708;50.364;7.550;2022-10-31T03:36:12;101087.22;;;10.53;100.00
54808;BME280;40708;50.364;7.550;2022-10-31T03:38:41;101087.19;;;10.48;100.00
54808;BME280;40708;50.364;7.550;2022-10-31T03:41:11;101084.50;;;10.45;100.00
54808;BME280;40708;50.364;7.550;2022-10-31T03:43:42;101080.91;;;10.40;100.00
54808;BME280;40708;50.364;7.550;2022-10-31T03:46:11;101077.31;;;10.38;100.00
54808;BME280;40708;50.364;7.550;2022-10-31T03:48:36;101088.84;;;10.37;100.00
54808;BME280;40708;50.364;7.550;2022-10-31T03:51:20;101080.78;;;10.31;100.00
54808;BME280;40708;50.364;7.550;2022-10-31T03:53:57;101079.00;;;10.29;100.00
54808;BME280;40708;50.364;7.550;2022-10-31T03:56:30;101080.84;;;10.33;100.00
54808;BME280;40708;50.364;7.550;2022-10-31T03:59:02;101079.94;;;10.32;100.00
54808;BME280;40708;50.364;7.550;2022-10-31T04:01:32;101079.00;;;10.29;100.00
54808;BME280;40708;50.364;7.550;2022-10-31T04:04:00;101081.66;;;10.29;100.00
54808;BME280;40708;50.364;7.550;2022-10-31T04:06:27;101086.09;;;10.30;100.00
54808;BME280;40708;50.364;7.550;2022-10-31T04:08:57;101089.63;;;10.30;100.00
54808;BME280;40708;50.364;7.550;2022-10-31T04:11:28;101093.16;;;10.31;100.00
54808;BME280;40708;50.364;7.550;2022-10-31T04:13:55;101095.88;;;10.35;100.00
54808;BME280;40708;50.364;7.550;2022-10-31T04:16:21;101090.63;;;10.40;100.00
54808;BME280;40708;50.364;7.550;2022-10-31T04:18:48;101087.13;;;10.42;100.00
54808;BME280;40708;50.364;7.550;2022-10-31T04:21:13;101088.94;;;10.48;100.00
54808;BME280;40708;50.364;7.550;2022-10-31T04:23:38;101088.09;;;10.49;100.00
54808;BME280;40708;50.364;7.550;2022-10-31T04:26:04;101088.13;;;10.53;100.00
54808;BME280;40708;50.364;7.550;2022-10-31T04:28:29;101093.50;;;10.61;100.00
54808;BME280;40708;50.364;7.550;2022-10-31T04:30:54;101090.03;;;10.65;100.00
54808;BME280;40708;50.364;7.550;2022-10-31T04:33:20;101089.19;;;10.70;100.00
54808;BME280;40708;50.364;7.550;2022-10-31T04:35:46;101081.31;;;10.78;100.00
54808;BME280;40708;50.364;7.550;2022-10-31T04:38:11;101081.34;;;10.81;100.00
54808;BME280;40708;50.364;7.550;2022-10-31T04:40:36;101080.44;;;10.82;100.00
54808;BME280;40708;50.364;7.550;2022-10-31T04:43:02;101084.03;;;10.87;100.00
54808;BME280;40708;50.364;7.550;2022-10-31T04:45:27;101087.56;;;10.88;100.00
54808;BME280;40708;50.364;7.550;2022-10-31T04:47:52;101078.75;;;10.89;100.00
54808;BME280;40708;50.364;7.550;2022-10-31T04:50:18;101072.56;;;10.91;100.00
54808;BME280;40708;50.364;7.550;2022-10-31T04:52:44;101069.91;;;10.91;100.00
54808;BME280;40708;50.364;7.550;2022-10-31T04:55:11;101070.75;;;10.84;100.00
54808;BME280;40708;50.364;7.550;2022-10-31T04:57:44;101076.00;;;10.78;100.00
54808;BME280;40708;50.364;7.550;2022-10-31T05:00:11;101075.97;;;10.76;100.00
54808;BME280;40708;50.364;7.550;2022-10-31T05:02:44;101064.41;;;10.71;100.00
54808;BME280;40708;50.364;7.550;2022-10-31T05:05:09;101063.50;;;10.65;100.00
54808;BME280;40708;50.364;7.550;2022-10-31T05:07:38;101074.84;;;10.53;100.00
54808;BME280;40708;50.364;7.550;2022-10-31T05:10:05;101069.47;;;10.46;100.00
54808;BME280;40708;50.364;7.550;2022-10-31T05:12:30;101075.66;;;10.45;100.00
54808;BME280;40708;50.364;7.550;2022-10-31T05:14:55;101067.69;;;10.43;100.00
54808;BME280;40708;50.364;7.550;2022-10-31T05:17:21;101066.72;;;10.38;100.00
54808;BME280;40708;50.364;7.550;2022-10-31T05:19:46;101056.88;;;10.28;100.00
54808;BME280;40708;50.364;7.550;2022-10-31T05:22:11;101066.56;;;10.22;100.00
54808;BME280;40708;50.364;7.550;2022-10-31T05:24:36;101055.00;;;10.18;100.00
54808;BME280;40708;50.364;7.550;2022-10-31T05:27:02;101058.41;;;10.09;100.00
54808;BME280;40708;50.364;7.550;2022-10-31T05:29:27;101046.84;;;10.04;100.00
54808;BME280;40708;50.364;7.550;2022-10-31T05:31:52;101042.41;;;10.02;100.00
54808;BME280;40708;50.364;7.550;2022-10-31T05:34:17;101036.13;;;9.95;100.00
54808;BME280;40708;50.364;7.550;2022-10-31T05:36:43;101040.53;;;9.95;100.00
54808;BME280;40708;50.364;7.550;2022-10-31T05:39:08;101034.38;;;9.96;100.00
54808;BME280;40708;50.364;7.550;2022-10-31T05:41:33;101037.13;;;10.02;100.00
54808;BME280;40708;50.364;7.550;2022-10-31T05:43:58;101035.22;;;9.92;100.00
54808;BME280;40708;50.364;7.550;2022-10-31T05:46:24;101041.34;;;9.86;100.00
54808;BME280;40708;50.364;7.550;2022-10-31T05:48:49;101036.03;;;9.88;100.00
54808;BME280;40708;50.364;7.550;2022-10-31T05:51:14;101036.09;;;9.91;100.00
54808;BME280;40708;50.364;7.550;2022-10-31T05:53:39;101027.19;;;9.87;100.00
54808;BME280;40708;50.364;7.550;2022-10-31T05:56:05;101034.25;;;9.87;100.00
54808;BME280;40708;50.364;7.550;2022-10-31T05:58:30;101037.81;;;9.87;100.00
54808;BME280;40708;50.364;7.550;2022-10-31T06:00:55;101036.91;;;9.87;100.00
54808;BME280;40708;50.364;7.550;2022-10-31T06:03:21;101041.31;;;9.85;100.00
54808;BME280;40708;50.364;7.550;2022-10-31T06:05:46;101044.75;;;9.78;100.00
54808;BME280;40708;50.364;7.550;2022-10-31T06:08:11;101042.06;;;9.75;100.00
54808;BME280;40708;50.364;7.550;2022-10-31T06:10:37;101043.88;;;9.77;100.00
54808;BME280;40708;50.364;7.550;2022-10-31T06:13:02;101049.16;;;9.77;100.00
54808;BME280;40708;50.364;7.550;2022-10-31T06:15:27;101041.25;;;9.80;100.00
54808;BME280;40708;50.364;7.550;2022-10-31T06:18:00;101049.16;;;9.79;100.00
54808;BME280;40708;50.364;7.550;2022-10-31T06:20:26;101046.50;;;9.77;100.00
54808;BME280;40708;50.364;7.550;2022-10-31T06:22:51;101045.66;;;9.80;100.00
54808;BME280;40708;50.364;7.550;2022-10-31T06:25:17;101040.38;;;9.81;100.00
54808;BME280;40708;50.364;7.550;2022-10-31T06:27:42;101046.69;;;9.91;100.00
54808;BME280;40708;50.364;7.550;2022-10-31T06:30:08;101042.41;;;10.03;100.00
54808;BME280;40708;50.364;7.550;2022-10-31T06:32:33;101044.25;;;10.09;100.00
54808;BME280;40708;50.364;7.550;2022-10-31T06:34:58;101047.91;;;10.17;100.00
54808;BME280;40708;50.364;7.550;2022-10-31T06:37:24;101052.44;;;10.26;100.00
54808;BME280;40708;50.364;7.550;2022-10-31T06:39:49;101048.97;;;10.30;100.00
54808;BME280;40708;50.364;7.550;2022-10-31T06:42:15;101052.59;;;10.39;100.00
54808;BME280;40708;50.364;7.550;2022-10-31T06:44:41;101062.38;;;10.43;100.00
54808;BME280;40708;50.364;7.550;2022-10-31T06:47:06;101066.88;;;10.50;100.00
54808;BME280;40708;50.364;7.550;2022-10-31T06:49:32;101059.81;;;10.52;100.00
54808;BME280;40708;50.364;7.550;2022-10-31T06:51:57;101056.34;;;10.59;100.00
54808;BME280;40708;50.364;7.550;2022-10-31T06:54:22;101052.00;;;10.67;100.00
54808;BME280;40708;50.364;7.550;2022-10-31T06:56:48;101051.13;;;10.67;100.00
54808;BME280;40708;50.364;7.550;2022-10-31T06:59:14;101055.53;;;10.65;100.00
54808;BME280;40708;50.364;7.550;2022-10-31T07:01:40;101054.75;;;10.80;100.00
54808;BME280;40708;50.364;7.550;2022-10-31T07:04:05;101061.84;;;10.82;100.00
54808;BME280;40708;50.364;7.550;2022-10-31T07:06:30;101061.84;;;10.82;100.00
54808;BME280;40708;50.364;7.550;2022-10-31T07:08:55;101059.25;;;10.85;100.00
54808;BME280;40708;50.364;7.550;2022-10-31T07:11:21;101051.34;;;10.91;100.00
54808;BME280;40708;50.364;7.550;2022-10-31T07:13:46;101058.34;;;10.85;100.00
54808;BME280;40708;50.364;7.550;2022-10-31T07:16:11;101060.22;;;10.96;100.00
54808;BME280;40708;50.364;7.550;2022-10-31T07:18:38;101060.28;;;11.04;100.00
54808;BME280;40708;50.364;7.550;2022-10-31T07:21:04;101060.28;;;11.02;100.00
54808;BME280;40708;50.364;7.550;2022-10-31T07:23:29;101046.94;;;10.96;100.00
54808;BME280;40708;50.364;7.550;2022-10-31T07:25:56;101052.38;;;11.08;100.00
54808;BME280;40708;50.364;7.550;2022-10-31T07:28:22;101049.78;;;11.20;100.00
54808;BME280;40708;50.364;7.550;2022-10-31T07:30:55;101055.22;;;11.34;100.00
54808;BME280;40708;50.364;7.550;2022-10-31T07:33:21;101059.63;;;11.33;100.00
54808;BME280;40708;50.364;7.550;2022-10-31T07:35:46;101054.41;;;11.46;100.00
54808;BME280;40708;50.364;7.550;2022-10-31T07:38:13;101055.28;;;11.43;100.00
54808;BME280;40708;50.364;7.550;2022-10-31T07:40:39;101056.22;;;11.53;100.00
54808;BME280;40708;50.364;7.550;2022-10-31T07:43:05;101053.63;;;11.66;100.00
54808;BME280;40708;50.364;7.550;2022-10-31T07:45:30;101057.25;;;11.74;100.00
54808;BME280;40708;50.364;7.550;2022-10-31T07:47:56;101049.19;;;11.62;100.00
54808;BME280;40708;50.364;7.550;2022-10-31T07:50:24;101037.69;;;11.62;100.00
54808;BME280;40708;50.364;7.550;2022-10-31T07:52:58;101044.88;;;11.75;100.00
54808;BME280;40708;50.364;7.550;2022-10-31T07:55:24;101037.81;;;11.78;100.00
54808;BME280;40708;50.364;7.550;2022-10-31T07:58:03;101039.50;;;11.69;100.00
54808;BME280;40708;50.364;7.550;2022-10-31T08:00:30;101035.13;;;11.71;100.00
54808;BME280;40708;50.364;7.550;2022-10-31T08:03:00;101037.56;;;11.44;100.00
54808;BME280;40708;50.364;7.550;2022-10-31T08:05:26;101035.81;;;11.47;100.00
54808;BME280;40708;50.364;7.550;2022-10-31T08:07:51;101041.06;;;11.36;100.00
54808;BME280;40708;50.364;7.550;2022-10-31T08:10:17;101032.13;;;11.25;100.00
54808;BME280;40708;50.364;7.550;2022-10-31T08:12:42;101037.50;;;11.33;100.00
54808;BME280;40708;50.364;7.550;2022-10-31T08:15:08;101048.22;;;11.48;100.00
54808;BME280;40708;50.364;7.550;2022-10-31T08:17:37;101039.41;;;11.55;100.00
54808;BME280;40708;50.364;7.550;2022-10-31T08:20:04;101039.44;;;11.61;100.00
54808;BME280;40708;50.364;7.550;2022-10-31T08:22:29;101036.81;;;11.64;100.00
54808;BME280;40708;50.364;7.550;2022-10-31T08:24:55;101028.84;;;11.67;100.00
54808;BME280;40708;50.364;7.550;2022-10-31T08:27:20;101027.91;;;11.61;100.00
54808;BME280;40708;50.364;7.550;2022-10-31T08:29:45;101018.25;;;11.69;100.00
54808;BME280;40708;50.364;7.550;2022-10-31T08:32:10;101027.25;;;11.95;100.00
54808;BME280;40708;50.364;7.550;2022-10-31T08:34:36;101024.59;;;12.04;100.00
54808;BME280;40708;50.364;7.550;2022-10-31T08:37:01;101007.81;;;12.20;100.00
54808;BME280;40708;50.364;7.550;2022-10-31T08:39:26;101010.50;;;12.34;100.00
54808;BME280;40708;50.364;7.550;2022-10-31T08:41:51;101000.75;;;12.42;100.00
54808;BME280;40708;50.364;7.550;2022-10-31T08:44:17;101002.50;;;12.34;100.00
54808;BME280;40708;50.364;7.550;2022-10-31T08:46:42;100989.25;;;12.50;100.00
54808;BME280;40708;50.364;7.550;2022-10-31T08:49:07;100992.81;;;12.84;100.00
54808;BME280;40708;50.364;7.550;2022-10-31T08:51:32;100995.50;;;13.15;100.00
54808;BME280;40708;50.364;7.550;2022-10-31T08:53:58;100991.03;;;13.21;100.00
54808;BME280;40708;50.364;7.550;2022-10-31T08:56:23;100974.19;;;12.81;100.00
54808;BME280;40708;50.364;7.550;2022-10-31T08:58:48;100966.19;;;12.98;100.00
54808;BME280;40708;50.364;7.550;2022-10-31T09:01:14;100960.00;;;13.13;100.00
54808;BME280;40708;50.364;7.550;2022-10-31T09:03:39;100964.44;;;13.09;100.00
54808;BME280;40708;50.364;7.550;2022-10-31T09:06:05;100960.81;;;13.36;100.00
54808;BME280;40708;50.364;7.550;2022-10-31T09:08:33;100953.69;;;13.47;100.00
54808;BME280;40708;50.364;7.550;2022-10-31T09:10:59;100945.69;;;13.38;100.00
54808;BME280;40708;50.364;7.550;2022-10-31T09:13:25;100945.69;;;13.35;100.00
54808;BME280;40708;50.364;7.550;2022-10-31T09:15:51;100946.50;;;13.59;100.00
54808;BME280;40708;50.364;7.550;2022-10-31T09:18:18;100937.66;;;13.51;100.00
54808;BME280;40708;50.364;7.550;2022-10-31T09:20:45;100933.22;;;13.49;100.00
54808;BME280;40708;50.364;7.550;2022-10-31T09:23:16;100935.94;;;13.35;100.00
54808;BME280;40708;50.364;7.550;2022-10-31T09:25:43;100930.63;;;13.28;100.00
54808;BME280;40708;50.364;7.550;2022-10-31T09:28:11;100942.13;;;13.45;100.00
54808;BME280;40708;50.364;7.550;2022-10-31T09:30:37;100935.91;;;13.44;100.00
54808;BME280;40708;50.364;7.550;2022-10-31T09:33:05;100931.44;;;13.58;100.00
54808;BME280;40708;50.364;7.550;2022-10-31T09:35:31;100925.19;;;13.61;100.00
54808;BME280;40708;50.364;7.550;2022-10-31T09:38:02;100922.53;;;13.61;100.00
54808;BME280;40708;50.364;7.550;2022-10-31T09:40:40;100911.88;;;13.53;100.00
54808;BME280;40708;50.364;7.550;2022-10-31T09:48:47;100910.09;;;13.58;100.00
54808;BME280;40708;50.364;7.550;2022-10-31T09:51:17;100917.13;;;13.70;100.00
54808;BME280;40708;50.364;7.550;2022-10-31T09:53:52;100912.50;;;14.07;100.00
54808;BME280;40708;50.364;7.550;2022-10-31T09:56:21;100901.75;;;14.17;100.00
54808;BME280;40708;50.364;7.550;2022-10-31T09:58:51;100906.91;;;14.43;100.00
54808;BME280;40708;50.364;7.550;2022-10-31T10:01:33;100901.59;;;14.42;100.00
54808;BME280;40708;50.364;7.550;2022-10-31T10:06:44;100892.56;;;14.58;100.00
54808;BME280;40708;50.364;7.550;2022-10-31T10:09:10;100888.78;;;14.78;100.00
54808;BME280;40708;50.364;7.550;2022-10-31T10:15:00;100871.69;;;14.98;100.00
54808;BME280;40708;50.364;7.550;2022-10-31T10:17:50;100869.69;;;15.18;100.00
54808;BME280;40708;50.364;7.550;2022-10-31T10:23:20;100855.69;;;15.69;100.00
54808;BME280;40708;50.364;7.550;2022-10-31T10:25:55;100848.81;;;15.52;100.00
54808;BME280;40708;50.364;7.550;2022-10-31T10:28:30;100853.50;;;15.97;100.00
54808;BME280;40708;50.364;7.550;2022-10-31T10:31:24;100840.03;;;16.03;100.00
54808;BME280;40708;50.364;7.550;2022-10-31T10:34:01;100826.94;;;16.38;100.00
54808;BME280;40708;50.364;7.550;2022-10-31T10:36:35;100833.66;;;16.10;100.00
54808;BME280;40708;50.364;7.550;2022-10-31T10:39:08;100832.44;;;16.29;100.00
54808;BME280;40708;50.364;7.550;2022-10-31T10:41:41;100828.34;;;16.60;100.00
54808;BME280;40708;50.364;7.550;2022-10-31T10:44:10;100830.44;;;16.92;100.00
54808;BME280;40708;50.364;7.550;2022-10-31T10:46:44;100823.38;;;16.38;100.00
54808;BME280;40708;50.364;7.550;2022-10-31T10:49:51;100813.44;;;16.44;100.00
54808;BME280;40708;50.364;7.550;2022-10-31T10:52:31;100802.81;;;16.40;100.00
54808;BME280;40708;50.364;7.550;2022-10-31T10:55:09;100824.13;;;16.44;100.00
54808;BME280;40708;50.364;7.550;2022-10-31T11:02:54;100795.63;;;16.43;100.00
54808;BME280;40708;50.364;7.550;2022-10-31T11:07:45;100797.22;;;16.01;100.00
54808;BME280;40708;50.364;7.550;2022-10-31T11:10:15;100791.50;;;16.24;100.00
54808;BME280;40708;50.364;7.550;2022-10-31T11:12:42;100783.31;;;16.33;100.00
54808;BME280;40708;50.364;7.550;2022-10-31T11:15:18;100785.69;;;16.48;100.00
54808;BME280;40708;50.364;7.550;2022-10-31T11:17:51;100786.28;;;16.67;100.00
54808;BME280;40708;50.364;7.550;2022-10-31T11:22:44;100767.56;;;16.64;100.00
54808;BME280;40708;50.364;7.550;2022-10-31T11:27:44;100759.53;;;17.07;100.00
54808;BME280;40708;50.364;7.550;2022-10-31T11:30:14;100759.06;;;17.31;100.00
54808;BME280;40708;50.364;7.550;2022-10-31T11:32:46;100764.28;;;17.77;100.00
54808;BME280;40708;50.364;7.550;2022-10-31T11:35:16;100746.09;;;17.50;100.00
54808;BME280;40708;50.364;7.550;2022-10-31T11:37:44;100735.22;;;17.16;100.00
54808;BME280;40708;50.364;7.550;2022-10-31T11:40:18;100734.66;;;17.42;100.00
54808;BME280;40708;50.364;7.550;2022-10-31T11:42:45;100735.94;;;17.25;100.00
54808;BME280;40708;50.364;7.550;2022-10-31T11:45:28;100714.72;;;17.13;100.00
54808;BME280;40708;50.364;7.550;2022-10-31T11:47:56;100716.03;;;17.34;100.00
54808;BME280;40708;50.364;7.550;2022-10-31T11:50:48;100728.19;;;17.12;100.00
54808;BME280;40708;50.364;7.550;2022-10-31T11:53:22;100734.34;;;17.57;100.00
54808;BME280;40708;50.364;7.550;2022-10-31T11:56:01;100724.28;;;17.66;100.00
54808;BME280;40708;50.364;7.550;2022-10-31T11:58:27;100710.13;;;17.58;100.00
54808;BME280;40708;50.364;7.550;2022-10-31T12:00:55;100694.88;;;17.22;100.00
54808;BME280;40708;50.364;7.550;2022-10-31T12:03:30;100706.22;;;16.93;100.00
54808;BME280;40708;50.364;7.550;2022-10-31T12:08:25;100699.31;;;17.23;100.00
54808;BME280;40708;50.364;7.550;2022-10-31T12:11:08;100691.50;;;17.14;100.00
54808;BME280;40708;50.364;7.550;2022-10-31T12:13:52;100692.16;;;17.62;100.00
54808;BME280;40708;50.364;7.550;2022-10-31T12:16:36;100691.47;;;17.89;100.00
54808;BME280;40708;50.364;7.550;2022-10-31T12:22:12;100684.56;;;18.14;100.00
54808;BME280;40708;50.364;7.550;2022-10-31T12:30:02;100659.72;;;18.06;100.00
54808;BME280;40708;50.364;7.550;2022-10-31T12:38:44;100644.00;;;18.57;100.00
54808;BME280;40708;50.364;7.550;2022-10-31T12:47:31;100633.25;;;18.86;100.00
54808;BME280;40708;50.364;7.550;2022-10-31T12:53:00;100598.00;;;18.37;100.00
54808;BME280;40708;50.364;7.550;2022-10-31T12:56:41;100590.34;;;18.54;100.00
54808;BME280;40708;50.364;7.550;2022-10-31T12:58:58;100592.69;;;18.65;100.00
54808;BME280;40708;50.364;7.550;2022-10-31T13:01:36;100584.53;;;18.68;100.00
54808;BME280;40708;50.364;7.550;2022-10-31T13:04:36;100588.41;;;18.88;100.00
54808;BME280;40708;50.364;7.550;2022-10-31T13:07:10;100582.72;;;18.97;100.00
54808;BME280;40708;50.364;7.550;2022-10-31T13:09:40;100588.94;;;18.99;100.00
54808;BME280;40708;50.364;7.550;2022-10-31T13:12:11;100587.56;;;19.14;100.00
54808;BME280;40708;50.364;7.550;2022-10-31T13:14:43;100579.31;;;19.19;100.00
54808;BME280;40708;50.364;7.550;2022-10-31T13:17:22;100573.84;;;19.22;100.00
54808;BME280;40708;50.364;7.550;2022-10-31T13:19:50;100566.38;;;19.31;100.00
54808;BME280;40708;50.364;7.550;2022-10-31T13:22:20;100560.66;;;19.42;100.00
54808;BME280;40708;50.364;7.550;2022-10-31T13:24:54;100547.19;;;19.16;100.00
54808;BME280;40708;50.364;7.550;2022-10-31T13:27:25;100537.59;;;18.79;100.00
54808;BME280;40708;50.364;7.550;2022-10-31T13:30:34;100545.47;;;18.85;100.00
54808;BME280;40708;50.364;7.550;2022-10-31T13:33:14;100537.06;;;18.96;100.00
54808;BME280;40708;50.364;7.550;2022-10-31T13:36:28;100543.63;;;18.87;100.00
54808;BME280;40708;50.364;7.550;2022-10-31T13:41:47;100557.88;;;19.17;100.00
54808;BME280;40708;50.364;7.550;2022-10-31T13:44:24;100560.75;;;19.11;100.00
54808;BME280;40708;50.364;7.550;2022-10-31T13:46:52;100548.81;;;18.93;100.00
54808;BME280;40708;50.364;7.550;2022-10-31T13:54:38;100526.41;;;18.65;100.00
54808;BME280;40708;50.364;7.550;2022-10-31T13:57:17;100541.22;;;18.78;100.00
54808;BME280;40708;50.364;7.550;2022-10-31T13:59:49;100538.25;;;18.87;100.00
54808;BME280;40708;50.364;7.550;2022-10-31T14:02:17;100530.88;;;18.65;100.00
54808;BME280;40708;50.364;7.550;2022-10-31T14:04:52;100525.09;;;18.51;100.00